createdAt,value
2018-12-08T00:00:53.091Z,6.67
2018-12-08T00:03:21.658Z,8.80
2018-12-08T00:05:50.147Z,9.47
2018-12-08T00:08:18.656Z,11.53
2018-12-08T00:10:47.398Z,5.17
2018-12-08T00:13:15.865Z,5.73
2018-12-08T00:15:44.449Z,8.13
2018-12-08T00:18:13.068Z,7.27
2018-12-08T00:20:41.557Z,7.07
2018-12-08T00:23:10.158Z,7.63
2018-12-08T00:25:38.680Z,10.13
2018-12-08T00:28:07.177Z,14.30
2018-12-08T00:30:41.229Z,17.63
2018-12-08T00:34:13.264Z,15.03
2018-12-08T00:36:42.044Z,13.83
2018-12-08T00:39:10.622Z,10.83
2018-12-08T00:41:39.157Z,12.00
2018-12-08T00:44:07.667Z,15.77
2018-12-08T00:46:36.233Z,17.37
2018-12-08T00:49:04.921Z,11.67
2018-12-08T00:51:33.417Z,15.73
2018-12-08T00:54:06.880Z,15.93
2018-12-08T00:56:35.905Z,18.97
2018-12-08T00:59:04.610Z,16.90
2018-12-08T01:01:33.113Z,15.50
2018-12-08T01:04:01.733Z,19.90
2018-12-08T01:06:30.246Z,24.90
2018-12-08T01:08:58.740Z,11.07
2018-12-08T01:11:28.037Z,16.07
2018-12-08T01:13:56.558Z,12.43
2018-12-08T01:16:25.181Z,19.03
2018-12-08T01:18:53.669Z,10.83
2018-12-08T01:21:22.202Z,9.47
2018-12-08T01:23:50.742Z,11.83
2018-12-08T01:26:19.274Z,20.17
2018-12-08T01:28:47.816Z,10.57
2018-12-08T01:31:16.327Z,11.50
2018-12-08T01:33:44.829Z,11.40
2018-12-08T01:36:13.360Z,12.43
2018-12-08T01:38:41.937Z,13.37
2018-12-08T01:41:10.426Z,7.80
2018-12-08T01:43:38.937Z,13.10
2018-12-08T01:46:07.537Z,7.53
2018-12-08T01:48:36.072Z,13.43
2018-12-08T01:51:04.642Z,15.13
2018-12-08T01:53:33.197Z,14.23
2018-12-08T01:56:01.836Z,10.30
2018-12-08T01:58:30.379Z,7.17
2018-12-08T02:00:59.049Z,10.47
2018-12-08T02:03:27.577Z,18.27
2018-12-08T02:05:56.140Z,9.73
2018-12-08T02:08:25.988Z,11.80
2018-12-08T02:10:54.549Z,9.67
2018-12-08T02:13:23.114Z,8.37
2018-12-08T02:15:51.660Z,10.63
2018-12-08T02:18:20.211Z,9.83
2018-12-08T02:20:48.752Z,8.83
2018-12-08T02:23:17.305Z,8.37
2018-12-08T02:25:46.032Z,11.07
2018-12-08T02:28:14.573Z,17.87
2018-12-08T02:30:43.185Z,7.87
2018-12-08T02:33:12.881Z,9.10
2018-12-08T02:35:41.642Z,9.20
2018-12-08T02:38:10.196Z,14.30
2018-12-08T02:40:38.791Z,5.93
2018-12-08T02:43:07.345Z,8.70
2018-12-08T02:45:35.845Z,8.87
2018-12-08T02:48:04.401Z,7.97
2018-12-08T02:50:33.003Z,9.10
2018-12-08T02:53:01.549Z,5.73
2018-12-08T02:55:30.119Z,8.30
2018-12-08T02:57:58.655Z,8.57
2018-12-08T03:00:27.199Z,10.27
2018-12-08T03:02:55.727Z,9.57
2018-12-08T03:05:24.316Z,9.90
2018-12-08T03:07:52.899Z,7.33
2018-12-08T03:10:21.438Z,7.80
2018-12-08T03:12:49.977Z,7.07
2018-12-08T03:15:18.516Z,7.33
2018-12-08T03:17:47.912Z,5.17
2018-12-08T03:20:17.565Z,8.77
2018-12-08T03:22:47.605Z,7.53
2018-12-08T03:25:16.713Z,6.00
2018-12-08T03:27:45.239Z,7.90
2018-12-08T03:30:15.090Z,7.13
2018-12-08T03:32:45.061Z,8.47
2018-12-08T03:35:14.463Z,5.97
2018-12-08T03:37:44.045Z,6.17
2018-12-08T03:40:13.194Z,7.47
2018-12-08T03:42:42.693Z,8.20
2018-12-08T03:45:12.298Z,7.60
2018-12-08T03:47:41.414Z,6.13
2018-12-08T03:50:10.420Z,7.93
2018-12-08T03:52:39.029Z,11.73
2018-12-08T03:55:08.366Z,5.57
2018-12-08T03:57:37.116Z,6.80
2018-12-08T04:00:06.791Z,7.27
2018-12-08T04:02:35.921Z,5.80
2018-12-08T04:05:06.042Z,7.50
2018-12-08T04:07:35.544Z,5.13
2018-12-08T04:10:05.443Z,12.10
2018-12-08T04:12:34.403Z,9.63
2018-12-08T04:15:04.145Z,7.67
2018-12-08T04:17:33.070Z,8.00
2018-12-08T04:20:02.690Z,5.87
2018-12-08T04:22:31.772Z,7.07
2018-12-08T04:25:00.270Z,6.10
2018-12-08T04:27:32.105Z,11.73
2018-12-08T04:30:00.846Z,8.17
2018-12-08T04:32:29.424Z,10.07
2018-12-08T04:34:58.099Z,8.63
2018-12-08T04:37:26.589Z,6.37
2018-12-08T04:39:55.090Z,7.10
2018-12-08T04:42:24.399Z,5.17
2018-12-08T04:44:53.654Z,8.83
2018-12-08T04:47:23.142Z,7.70
2018-12-08T04:49:51.649Z,13.47
2018-12-08T04:52:20.242Z,9.67
2018-12-08T04:54:48.734Z,5.90
2018-12-08T04:57:17.233Z,4.20
2018-12-08T04:59:46.238Z,8.63
2018-12-08T05:02:14.741Z,7.90
2018-12-08T05:04:43.459Z,10.00
2018-12-08T05:07:11.966Z,6.73
2018-12-08T05:09:40.515Z,7.13
2018-12-08T05:12:09.004Z,7.73
2018-12-08T05:14:37.452Z,6.60
2018-12-08T05:17:06.205Z,6.27
2018-12-08T05:19:34.779Z,9.10
2018-12-08T05:22:03.356Z,6.33
2018-12-08T05:24:32.817Z,9.70
2018-12-08T05:27:01.872Z,9.43
2018-12-08T05:29:30.425Z,7.57
2018-12-08T05:31:59.005Z,5.30
2018-12-08T05:34:27.556Z,5.00
2018-12-08T05:36:56.096Z,7.27
2018-12-08T05:39:24.627Z,10.33
2018-12-08T05:41:56.316Z,5.87
2018-12-08T05:44:24.814Z,5.50
2018-12-08T05:46:53.302Z,7.67
2018-12-08T05:49:22.072Z,9.13
2018-12-08T05:51:50.548Z,6.13
2018-12-08T05:54:19.516Z,8.20
2018-12-08T05:56:48.633Z,10.97
2018-12-08T05:59:17.126Z,7.30
2018-12-08T06:01:46.125Z,8.77
2018-12-08T06:04:14.585Z,11.13
2018-12-08T06:06:43.059Z,9.27
2018-12-08T06:09:11.558Z,11.47
2018-12-08T06:11:40.193Z,5.87
2018-12-08T06:14:08.671Z,10.77
2018-12-08T06:16:37.210Z,8.90
2018-12-08T06:19:05.728Z,12.47
2018-12-08T06:21:35.477Z,6.70
2018-12-08T06:24:04.097Z,10.07
2018-12-08T06:26:35.240Z,9.60
2018-12-08T06:29:03.744Z,7.63
2018-12-08T06:31:32.324Z,6.73
2018-12-08T06:34:03.455Z,11.50
2018-12-08T06:36:32.389Z,11.40
2018-12-08T06:39:02.382Z,8.40
2018-12-08T06:41:32.982Z,9.17
2018-12-08T06:44:03.930Z,8.30
2018-12-08T06:46:32.374Z,9.80
2018-12-08T06:49:03.353Z,8.63
2018-12-08T06:51:31.834Z,5.40
2018-12-08T06:54:00.391Z,6.77
2018-12-08T06:56:28.889Z,5.20
2018-12-08T06:58:57.371Z,8.83
2018-12-08T07:01:25.860Z,11.43
2018-12-08T07:03:54.344Z,7.43
2018-12-08T07:06:22.843Z,8.67
2018-12-08T07:08:51.420Z,9.73
2018-12-08T07:11:19.885Z,9.47
2018-12-08T07:13:48.491Z,12.73
2018-12-08T07:16:16.974Z,6.73
2018-12-08T07:18:45.496Z,9.60
2018-12-08T07:21:13.980Z,8.20
2018-12-08T07:23:42.483Z,7.97
2018-12-08T07:26:11.039Z,6.83
2018-12-08T07:28:39.553Z,10.83
2018-12-08T07:31:08.057Z,7.27
2018-12-08T07:33:36.573Z,13.23
2018-12-08T07:36:05.177Z,9.87
2018-12-08T07:38:33.686Z,8.00
2018-12-08T07:41:02.220Z,8.87
2018-12-08T07:43:30.750Z,10.97
2018-12-08T07:45:59.254Z,10.10
2018-12-08T07:48:27.827Z,8.93
2018-12-08T07:50:56.387Z,11.23
2018-12-08T07:53:24.893Z,13.13
2018-12-08T07:55:53.453Z,10.80
2018-12-08T07:58:21.961Z,11.37
2018-12-08T08:00:50.444Z,6.57
2018-12-08T08:03:18.949Z,6.97
2018-12-08T08:05:47.458Z,6.63
2018-12-08T08:08:16.060Z,6.33
2018-12-08T08:10:44.563Z,12.13
2018-12-08T08:13:13.054Z,6.00
2018-12-08T08:15:41.578Z,4.87
2018-12-08T08:18:10.564Z,4.83
2018-12-08T08:20:39.244Z,5.30
2018-12-08T08:23:07.752Z,7.93
2018-12-08T08:25:36.237Z,7.10
2018-12-08T08:28:04.720Z,3.67
2018-12-08T08:30:33.959Z,5.43
2018-12-08T08:33:02.661Z,4.37
2018-12-08T08:35:31.160Z,5.00
2018-12-08T08:37:59.687Z,3.37
2018-12-08T08:40:28.209Z,5.70
2018-12-08T08:42:56.685Z,5.23
2018-12-08T08:45:25.255Z,6.67
2018-12-08T08:47:53.777Z,7.53
2018-12-08T08:50:22.305Z,7.23
2018-12-08T08:52:50.781Z,7.70
2018-12-08T08:55:19.352Z,8.67
2018-12-08T08:57:47.886Z,5.83
2018-12-08T09:00:16.396Z,10.53
2018-12-08T09:02:44.964Z,9.70
2018-12-08T09:05:13.491Z,7.67
2018-12-08T09:07:41.992Z,10.77
2018-12-08T09:10:11.069Z,7.40
2018-12-08T09:12:39.563Z,9.73
2018-12-08T09:15:08.629Z,11.00
2018-12-08T09:17:37.218Z,11.13
2018-12-08T09:20:08.065Z,6.47
2018-12-08T09:22:38.050Z,8.70
2018-12-08T09:25:07.416Z,8.60
2018-12-08T09:27:35.945Z,6.67
2018-12-08T09:30:05.534Z,10.40
2018-12-08T09:32:34.099Z,11.53
2018-12-08T09:35:02.713Z,8.57
2018-12-08T09:37:31.201Z,9.17
2018-12-08T09:39:59.778Z,9.77
2018-12-08T09:42:28.283Z,6.40
2018-12-08T09:44:56.871Z,5.97
2018-12-08T09:47:25.378Z,10.93
2018-12-08T09:49:53.882Z,5.57
2018-12-08T09:52:22.384Z,10.33
2018-12-08T09:54:50.921Z,9.40
2018-12-08T09:57:19.416Z,13.50
2018-12-08T09:59:47.941Z,7.30
2018-12-08T10:02:16.448Z,9.80
2018-12-08T10:04:44.953Z,14.60
2018-12-08T10:07:13.417Z,8.80
2018-12-08T10:09:42.567Z,10.07
2018-12-08T10:12:11.142Z,16.23
2018-12-08T10:14:39.652Z,12.03
2018-12-08T10:17:08.123Z,5.87
2018-12-08T10:19:36.631Z,10.83
2018-12-08T10:22:05.218Z,10.47
2018-12-08T10:24:33.721Z,7.63
2018-12-08T10:27:02.248Z,8.33
2018-12-08T10:29:30.909Z,9.57
2018-12-08T10:32:00.167Z,8.97
2018-12-08T10:34:28.727Z,5.87
2018-12-08T10:36:57.226Z,5.10
2018-12-08T10:39:25.696Z,9.23
2018-12-08T10:41:54.195Z,9.03
2018-12-08T10:44:22.737Z,5.83
2018-12-08T10:46:51.249Z,9.00
2018-12-08T10:49:19.738Z,4.50
2018-12-08T10:51:48.271Z,6.10
2018-12-08T10:54:16.767Z,6.70
2018-12-08T10:56:45.273Z,3.77
2018-12-08T10:59:13.760Z,3.73
2018-12-08T11:01:47.627Z,6.80
2018-12-08T11:04:16.231Z,4.80
2018-12-08T11:06:45.721Z,3.10
2018-12-08T11:09:14.188Z,5.60
2018-12-08T11:11:42.777Z,6.93
2018-12-08T11:14:11.257Z,5.83
2018-12-08T11:16:39.813Z,4.77
2018-12-08T11:19:08.324Z,11.83
2018-12-08T11:21:36.960Z,8.80
2018-12-08T11:24:05.486Z,8.13
2018-12-08T11:26:34.065Z,6.70
2018-12-08T11:29:02.559Z,8.07
2018-12-08T11:31:31.149Z,4.93
2018-12-08T11:33:59.834Z,10.90
2018-12-08T11:36:29.117Z,21.60
2018-12-08T11:38:57.707Z,19.80
2018-12-08T11:41:26.221Z,26.40
2018-12-08T11:43:54.941Z,20.70
2018-12-08T11:46:23.445Z,17.00
2018-12-08T11:48:53.472Z,10.13
2018-12-08T11:51:22.023Z,22.33
2018-12-08T11:53:50.514Z,20.40
2018-12-08T11:56:19.011Z,19.23
2018-12-08T11:58:47.511Z,10.50
2018-12-08T12:01:16.116Z,8.80
2018-12-08T12:03:44.662Z,11.43
2018-12-08T12:06:13.164Z,9.13
2018-12-08T12:08:41.733Z,7.87
2018-12-08T12:11:10.253Z,4.47
2018-12-08T12:13:38.740Z,8.80
2018-12-08T12:16:07.293Z,5.30
2018-12-08T12:18:35.841Z,9.67
2018-12-08T12:21:04.363Z,5.40
2018-12-08T12:23:32.845Z,12.03
2018-12-08T12:26:01.336Z,12.63
2018-12-08T12:28:29.978Z,9.67
2018-12-08T12:30:58.505Z,11.13
2018-12-08T12:33:27.101Z,11.97
2018-12-08T12:35:55.617Z,9.27
2018-12-08T12:38:24.226Z,11.93
2018-12-08T12:40:52.749Z,13.07
2018-12-08T12:43:21.261Z,16.50
2018-12-08T12:45:49.771Z,8.87
2018-12-08T12:48:18.296Z,11.87
2018-12-08T12:50:46.800Z,9.10
2018-12-08T12:53:15.285Z,16.27
2018-12-08T12:55:43.769Z,12.43
2018-12-08T12:58:12.375Z,10.37
2018-12-08T13:00:41.194Z,14.47
2018-12-08T13:03:09.664Z,13.17
2018-12-08T13:05:38.122Z,17.23
2018-12-08T13:08:06.891Z,11.70
2018-12-08T13:10:35.752Z,30.97
2018-12-08T13:13:04.631Z,15.37
2018-12-08T13:15:33.493Z,10.57
2018-12-08T13:18:02.344Z,10.37
2018-12-08T13:20:31.215Z,44.20
2018-12-08T13:23:00.074Z,9.87
2018-12-08T13:25:29.049Z,15.90
2018-12-08T13:27:57.897Z,16.10
2018-12-08T13:30:26.773Z,16.23
2018-12-08T13:32:55.633Z,11.73
2018-12-08T13:35:59.037Z,10.70
2018-12-08T13:38:28.028Z,8.93
2018-12-08T13:40:56.983Z,19.67
2018-12-08T13:43:25.836Z,15.27
2018-12-08T13:45:54.741Z,12.60
2018-12-08T13:48:25.718Z,13.17
2018-12-08T13:50:54.943Z,7.90
2018-12-08T13:53:23.902Z,8.83
2018-12-08T13:55:52.835Z,6.87
2018-12-08T13:58:21.832Z,8.40
2018-12-08T14:00:50.666Z,12.30
2018-12-08T14:03:19.646Z,7.37
2018-12-08T14:05:48.554Z,11.90
2018-12-08T14:08:17.453Z,11.73
2018-12-08T14:10:46.594Z,9.53
2018-12-08T14:13:16.447Z,8.87
2018-12-08T14:15:45.433Z,8.03
2018-12-08T14:18:14.355Z,10.27
2018-12-08T14:20:43.382Z,12.33
2018-12-08T14:23:13.255Z,10.50
2018-12-08T14:25:42.207Z,6.90
2018-12-08T14:28:11.519Z,11.03
2018-12-08T14:30:40.416Z,11.10
2018-12-08T14:33:09.307Z,16.53
2018-12-08T14:35:38.233Z,15.50
2018-12-08T14:38:07.134Z,9.53
2018-12-08T14:40:36.001Z,10.07
2018-12-08T14:43:04.931Z,8.57
2018-12-08T14:45:33.913Z,9.87
2018-12-08T14:48:02.772Z,13.93
2018-12-08T14:50:31.745Z,13.87
2018-12-08T14:53:00.615Z,15.63
2018-12-08T14:55:29.573Z,9.40
2018-12-08T14:57:58.477Z,11.63
2018-12-08T15:00:27.483Z,11.50
2018-12-08T15:02:56.457Z,9.63
2018-12-08T15:05:25.334Z,7.23
2018-12-08T15:07:54.274Z,11.83
2018-12-08T15:11:26.601Z,13.93
2018-12-08T15:13:55.470Z,10.07
2018-12-08T15:16:24.356Z,12.70
2018-12-08T15:18:53.231Z,12.67
2018-12-08T15:21:22.833Z,12.97
2018-12-08T15:23:52.727Z,10.77
2018-12-08T15:26:22.654Z,17.57
2018-12-08T15:28:52.297Z,14.77
2018-12-08T15:31:23.098Z,18.43
2018-12-08T15:33:52.083Z,24.63
2018-12-08T15:36:22.706Z,13.37
2018-12-08T15:38:51.538Z,15.90
2018-12-08T15:41:22.773Z,23.53
2018-12-08T15:43:51.748Z,20.03
2018-12-08T15:46:20.745Z,15.27
2018-12-08T15:48:50.791Z,19.10
2018-12-08T15:51:19.968Z,18.23
2018-12-08T15:53:48.914Z,15.53
2018-12-08T15:56:17.765Z,19.97
2018-12-08T15:58:46.894Z,19.50
2018-12-08T16:01:15.749Z,12.47
2018-12-08T16:03:44.646Z,8.77
2018-12-08T16:06:13.542Z,11.77
2018-12-08T16:08:42.431Z,9.23
2018-12-08T16:11:11.269Z,13.40
2018-12-08T16:13:40.388Z,13.00
2018-12-08T16:16:09.436Z,9.17
2018-12-08T16:18:38.466Z,15.73
2018-12-08T16:21:07.756Z,12.57
2018-12-08T16:23:36.747Z,9.90
2018-12-08T16:26:05.694Z,10.50
2018-12-08T16:28:34.557Z,10.23
2018-12-08T16:31:03.629Z,7.97
2018-12-08T16:33:32.498Z,8.43
2018-12-08T16:36:01.470Z,14.23
2018-12-08T16:38:30.354Z,8.77
2018-12-08T16:40:59.198Z,11.13
2018-12-08T16:43:28.101Z,12.50
2018-12-08T16:45:56.931Z,6.93
2018-12-08T16:48:25.791Z,9.37
2018-12-08T16:50:54.636Z,6.07
2018-12-08T16:53:24.292Z,8.70
2018-12-08T16:55:53.192Z,12.00
2018-12-08T16:58:22.018Z,8.17
2018-12-08T17:00:51.090Z,8.50
2018-12-08T17:03:19.926Z,9.33
2018-12-08T17:05:48.825Z,8.77
2018-12-08T17:08:17.709Z,10.27
2018-12-08T17:10:46.812Z,10.40
2018-12-08T17:13:15.698Z,12.63
2018-12-08T17:15:44.546Z,9.00
2018-12-08T17:18:13.390Z,13.20
2018-12-08T17:22:11.512Z,11.03
2018-12-08T17:24:40.372Z,9.57
2018-12-08T17:27:09.357Z,12.43
2018-12-08T17:29:38.239Z,13.10
2018-12-08T17:32:07.124Z,8.20
2018-12-08T17:34:36.013Z,15.57
2018-12-08T17:37:05.100Z,7.13
2018-12-08T17:39:34.064Z,11.70
2018-12-08T17:42:02.932Z,12.03
2018-12-08T17:44:31.915Z,14.90
2018-12-08T17:47:00.791Z,10.03
2018-12-08T17:49:29.706Z,10.73
2018-12-08T17:51:58.617Z,8.73
2018-12-08T17:54:27.504Z,11.30
2018-12-08T17:56:56.381Z,11.90
2018-12-08T17:59:25.368Z,13.80
2018-12-08T18:01:54.511Z,10.50
2018-12-08T18:04:23.378Z,12.37
2018-12-08T18:06:52.218Z,9.63
2018-12-08T18:09:21.250Z,9.00
2018-12-08T18:11:50.110Z,12.77
2018-12-08T18:14:19.230Z,9.53
2018-12-08T18:16:48.098Z,12.17
2018-12-08T18:19:16.950Z,9.57
2018-12-08T18:21:46.033Z,7.73
2018-12-08T18:24:14.925Z,8.13
2018-12-08T18:26:43.860Z,9.10
2018-12-08T18:29:12.731Z,7.73
2018-12-08T18:31:41.619Z,8.87
2018-12-08T18:34:10.564Z,10.93
2018-12-08T18:36:39.454Z,8.10
2018-12-08T18:39:08.290Z,7.67
2018-12-08T18:41:37.185Z,10.90
2018-12-08T18:44:06.162Z,10.63
2018-12-08T18:46:49.809Z,7.63
2018-12-08T18:49:18.720Z,8.20
2018-12-08T18:51:47.586Z,9.83
2018-12-08T18:54:16.468Z,8.83
2018-12-08T18:56:45.350Z,8.77
2018-12-08T18:59:14.223Z,8.63
2018-12-08T19:01:43.096Z,9.40
2018-12-08T19:04:12.098Z,6.13
2018-12-08T19:06:41.116Z,11.60
2018-12-08T19:09:10.086Z,9.47
2018-12-08T19:11:39.170Z,9.17
2018-12-08T19:14:08.069Z,9.07
2018-12-08T19:16:37.033Z,8.97
2018-12-08T19:19:05.880Z,8.20
2018-12-08T19:21:34.742Z,10.90
2018-12-08T19:24:03.718Z,7.67
2018-12-08T19:26:32.579Z,6.30
2018-12-08T19:29:01.461Z,4.40
2018-12-08T19:31:30.328Z,8.40
2018-12-08T19:33:59.206Z,8.27
2018-12-08T19:36:28.135Z,4.80
2018-12-08T19:38:57.022Z,5.57
2018-12-08T19:41:25.861Z,4.17
2018-12-08T19:43:54.776Z,5.10
2018-12-08T19:46:23.655Z,5.40
2018-12-08T19:48:52.585Z,7.37
2018-12-08T19:51:21.428Z,5.07
2018-12-08T19:53:50.423Z,6.20
2018-12-08T19:56:19.675Z,6.93
2018-12-08T19:58:48.548Z,5.47
2018-12-08T20:01:17.438Z,10.00
2018-12-08T20:03:46.407Z,5.23
2018-12-08T20:06:15.320Z,3.60
2018-12-08T20:08:44.535Z,4.80
2018-12-08T20:11:13.427Z,3.53
2018-12-08T20:13:42.982Z,5.70
2018-12-08T20:16:12.518Z,6.43
2018-12-08T20:18:41.449Z,8.13
2018-12-08T20:21:10.327Z,4.87
2018-12-08T20:23:39.224Z,7.60
2018-12-08T20:26:08.088Z,5.90
2018-12-08T20:28:36.962Z,3.60
2018-12-08T20:31:05.852Z,4.83
2018-12-08T20:33:34.691Z,6.07
2018-12-08T20:36:03.739Z,5.73
2018-12-08T20:38:32.635Z,5.50
2018-12-08T20:41:01.641Z,2.87
2018-12-08T20:43:30.512Z,3.87
2018-12-08T20:45:59.414Z,3.63
2018-12-08T20:48:28.306Z,2.53
2018-12-08T20:50:56.881Z,4.83
2018-12-08T20:53:26.024Z,4.93
2018-12-08T20:55:54.569Z,4.70
2018-12-08T20:58:23.122Z,3.67
2018-12-08T21:00:51.737Z,5.40
2018-12-08T21:03:21.276Z,4.27
2018-12-08T21:05:49.873Z,5.57
2018-12-08T21:08:19.359Z,3.60
2018-12-08T21:10:47.858Z,3.93
2018-12-08T21:13:16.367Z,2.93
2018-12-08T21:15:44.942Z,4.00
2018-12-08T21:18:13.447Z,4.67
2018-12-08T21:20:41.941Z,2.30
2018-12-08T21:23:10.452Z,4.77
2018-12-08T21:25:38.960Z,2.57
2018-12-08T21:28:07.456Z,3.60
2018-12-08T21:30:35.999Z,3.27
2018-12-08T21:33:04.514Z,5.27
2018-12-08T21:35:33.000Z,4.37
2018-12-08T21:38:01.518Z,2.83
2018-12-08T21:40:30.425Z,3.20
2018-12-08T21:42:58.942Z,6.07
2018-12-08T21:45:28.103Z,3.73
2018-12-08T21:47:56.570Z,3.03
2018-12-08T21:50:25.066Z,2.23
2018-12-08T21:52:53.781Z,2.47
2018-12-08T21:55:22.350Z,4.33
2018-12-08T21:57:50.880Z,2.37
2018-12-08T22:00:19.407Z,2.47
2018-12-08T22:02:47.977Z,2.30
2018-12-08T22:05:17.543Z,3.33
2018-12-08T22:07:46.199Z,2.50
2018-12-08T22:10:14.851Z,2.93
2018-12-08T22:12:44.443Z,4.53
2018-12-08T22:15:15.356Z,3.97
2018-12-08T22:17:44.326Z,2.83
2018-12-08T22:20:13.027Z,4.23
2018-12-08T22:22:41.517Z,2.60
2018-12-08T22:25:10.047Z,1.90
2018-12-08T22:27:38.537Z,5.13
2018-12-08T22:30:07.153Z,3.33
2018-12-08T22:32:35.684Z,3.13
2018-12-08T22:35:04.570Z,3.00
2018-12-08T22:37:33.219Z,3.23
2018-12-08T22:40:01.701Z,2.33
2018-12-08T22:42:30.184Z,2.53
2018-12-08T22:45:00.979Z,3.43
2018-12-08T22:47:29.618Z,2.20
2018-12-08T22:49:58.235Z,3.83
2018-12-08T22:52:26.830Z,2.23
2018-12-08T22:54:55.405Z,4.33
2018-12-08T22:57:23.933Z,3.17
2018-12-08T22:59:52.410Z,2.20
2018-12-08T23:02:20.966Z,2.57
2018-12-08T23:04:49.452Z,2.30
2018-12-08T23:07:19.101Z,3.30
2018-12-08T23:09:47.630Z,1.73
2018-12-08T23:12:16.235Z,2.53
2018-12-08T23:14:44.760Z,2.57
2018-12-08T23:17:13.273Z,2.93
2018-12-08T23:19:41.787Z,1.90
2018-12-08T23:22:10.294Z,2.90
2018-12-08T23:24:38.798Z,2.43
2018-12-08T23:27:07.711Z,2.87
2018-12-08T23:29:36.272Z,1.73
2018-12-08T23:32:05.022Z,1.80
2018-12-08T23:34:33.552Z,3.27
2018-12-08T23:37:03.034Z,3.10
2018-12-08T23:39:38.734Z,2.00
2018-12-08T23:42:05.337Z,2.17
2018-12-08T23:44:36.276Z,3.00
2018-12-08T23:47:08.380Z,2.90
2018-12-08T23:49:41.402Z,2.90
2018-12-08T23:52:12.511Z,3.93
2018-12-08T23:54:47.722Z,3.13
2018-12-08T23:57:19.415Z,5.20
2018-12-08T23:59:50.088Z,5.47
